createdAt,value
2023-05-19T00:02:26.210Z,10.86
2023-05-19T00:07:31.375Z,10.77
2023-05-19T00:12:33.322Z,10.72
2023-05-19T00:17:35.154Z,10.86
2023-05-19T00:22:37.109Z,10.72
2023-05-19T00:27:38.801Z,10.34
2023-05-19T00:32:40.751Z,10.57
2023-05-19T00:37:42.473Z,10.59
2023-05-19T00:42:44.141Z,10.36
2023-05-19T00:47:45.947Z,9.99
2023-05-19T00:52:47.690Z,10.06
2023-05-19T00:57:49.919Z,10.04
2023-05-19T01:02:51.828Z,10.02
2023-05-19T01:07:55.610Z,9.55
2023-05-19T01:12:57.432Z,9.58
2023-05-19T01:18:08.286Z,9.54
2023-05-19T01:23:21.558Z,9.17
2023-05-19T01:28:49.147Z,8.97
2023-05-19T01:33:53.263Z,9.19
2023-05-19T01:38:58.552Z,9.15
2023-05-19T01:44:00.769Z,8.78
2023-05-19T01:49:03.122Z,8.69
2023-05-19T01:54:04.833Z,8.76
2023-05-19T01:59:23.949Z,8.59
2023-05-19T02:04:51.182Z,8.64
2023-05-19T02:10:30.974Z,8.56
2023-05-19T02:15:42.319Z,8.47
2023-05-19T02:20:44.152Z,8.56
2023-05-19T02:25:45.883Z,8.56
2023-05-19T02:30:47.583Z,8.66
2023-05-19T02:35:49.303Z,8.75
2023-05-19T02:40:52.402Z,8.66
2023-05-19T02:45:54.266Z,8.43
2023-05-19T02:50:55.988Z,8.45
2023-05-19T02:55:57.671Z,8.10
2023-05-19T03:00:59.328Z,7.99
2023-05-19T03:06:01.963Z,8.22
2023-05-19T03:11:03.862Z,8.20
2023-05-19T03:16:08.113Z,8.06
2023-05-19T03:21:10.201Z,8.03
2023-05-19T03:26:11.886Z,8.15
2023-05-19T03:31:13.644Z,7.84
2023-05-19T03:36:16.318Z,8.05
2023-05-19T03:41:18.071Z,8.37
2023-05-19T03:46:19.980Z,8.27
2023-05-19T03:51:21.677Z,8.10
2023-05-19T03:56:27.785Z,8.32
2023-05-19T04:01:29.603Z,8.58
2023-05-19T04:06:33.968Z,8.61
2023-05-19T04:11:36.655Z,8.66
2023-05-19T04:16:38.518Z,8.91
2023-05-19T04:21:40.192Z,9.23
2023-05-19T04:26:45.951Z,9.00
2023-05-19T04:31:49.114Z,9.35
2023-05-19T04:36:53.249Z,9.49
2023-05-19T04:41:56.729Z,9.49
2023-05-19T04:47:00.234Z,9.70
2023-05-19T04:52:02.079Z,9.86
2023-05-19T04:57:05.843Z,10.28
2023-05-19T05:02:11.225Z,10.77
2023-05-19T05:07:12.989Z,11.02
2023-05-19T05:12:15.589Z,11.46
2023-05-19T05:17:17.734Z,12.10
2023-05-19T05:22:19.890Z,11.99
2023-05-19T05:27:21.662Z,11.78
2023-05-19T05:32:23.635Z,11.94
2023-05-19T05:37:25.628Z,11.75
2023-05-19T05:42:29.699Z,12.11
2023-05-19T05:47:32.579Z,12.03
2023-05-19T05:52:36.641Z,11.88
2023-05-19T05:57:41.939Z,12.75
2023-05-19T06:02:47.369Z,12.46
2023-05-19T06:07:50.096Z,12.56
2023-05-19T06:12:56.492Z,13.04
2023-05-19T06:18:00.236Z,13.20
2023-05-19T06:23:02.932Z,14.39
2023-05-19T06:28:04.996Z,15.38
2023-05-19T06:33:07.322Z,16.50
2023-05-19T06:38:09.224Z,15.52
2023-05-19T06:43:11.461Z,15.72
2023-05-19T06:48:35.157Z,15.29
2023-05-19T06:53:38.212Z,15.46
2023-05-19T06:58:43.757Z,16.07
2023-05-19T07:03:46.923Z,17.12
2023-05-19T07:08:50.113Z,14.94
2023-05-19T07:13:52.819Z,15.47
2023-05-19T07:19:00.522Z,15.48
2023-05-19T07:24:02.278Z,16.62
2023-05-19T07:29:04.310Z,17.78
2023-05-19T07:34:06.080Z,16.64
2023-05-19T07:39:07.828Z,18.64
2023-05-19T07:44:10.449Z,20.25
2023-05-19T07:49:12.132Z,25.57
2023-05-19T07:54:13.779Z,23.53
2023-05-19T07:59:16.086Z,21.66
2023-05-19T08:04:17.933Z,21.15
2023-05-19T08:09:20.217Z,20.53
2023-05-19T08:14:22.930Z,21.20
2023-05-19T08:19:24.755Z,22.07
2023-05-19T08:24:26.669Z,21.16
2023-05-19T08:29:28.334Z,21.92
2023-05-19T08:34:29.987Z,25.15
2023-05-19T08:39:34.226Z,24.74
2023-05-19T08:44:37.623Z,25.41
2023-05-19T08:49:50.592Z,23.31
2023-05-19T08:55:21.849Z,22.29
2023-05-19T09:00:23.964Z,21.17
2023-05-19T09:05:25.746Z,20.62
2023-05-19T09:10:29.120Z,20.54
2023-05-19T09:15:31.969Z,21.31
2023-05-19T09:20:37.289Z,20.92
2023-05-19T09:25:50.276Z,18.74
2023-05-19T09:31:01.540Z,21.60
2023-05-19T09:36:06.150Z,20.53
2023-05-19T09:41:09.152Z,21.32
2023-05-19T09:46:14.770Z,22.30
2023-05-19T09:51:17.584Z,22.45
2023-05-19T09:56:23.813Z,22.16
2023-05-19T10:01:26.691Z,20.67
2023-05-19T10:06:28.702Z,22.62
2023-05-19T10:11:30.823Z,21.73
2023-05-19T10:16:33.798Z,22.31
2023-05-19T10:21:35.495Z,21.98
2023-05-19T10:26:39.072Z,23.60
2023-05-19T10:31:41.447Z,20.52
2023-05-19T10:36:46.468Z,20.30
2023-05-19T10:42:23.926Z,20.50
2023-05-19T10:47:26.323Z,25.03
2023-05-19T10:52:30.854Z,21.79
2023-05-19T10:57:33.346Z,22.49
2023-05-19T11:02:42.348Z,20.51
2023-05-19T11:07:55.338Z,22.17
2023-05-19T11:12:58.415Z,22.04
2023-05-19T11:18:01.951Z,21.68
2023-05-19T11:23:03.631Z,23.43
2023-05-19T11:28:05.888Z,22.97
2023-05-19T11:33:08.235Z,20.57
2023-05-19T11:38:11.241Z,21.45
2023-05-19T11:43:12.904Z,23.19
2023-05-19T11:48:16.104Z,21.96
2023-05-19T11:53:19.847Z,22.51
2023-05-19T11:58:27.849Z,20.15
2023-05-19T12:03:29.885Z,20.36
2023-05-19T12:08:31.810Z,22.62
2023-05-19T12:13:33.659Z,22.86
2023-05-19T12:18:39.224Z,21.05
2023-05-19T12:23:41.839Z,21.91
2023-05-19T12:28:45.631Z,21.56
2023-05-19T12:33:52.618Z,21.14
2023-05-19T12:38:55.612Z,18.98
2023-05-19T12:43:57.256Z,18.93
2023-05-19T12:49:01.008Z,19.44
2023-05-19T12:54:04.676Z,19.00
2023-05-19T12:59:06.401Z,19.08
2023-05-19T13:04:08.340Z,19.45
2023-05-19T13:09:10.879Z,19.42
2023-05-19T13:14:12.638Z,19.69
2023-05-19T13:19:25.536Z,21.04
2023-05-19T13:24:27.895Z,18.95
2023-05-19T13:29:29.598Z,18.83
2023-05-19T13:34:31.350Z,18.43
2023-05-19T13:39:33.438Z,18.50
2023-05-19T13:44:35.176Z,18.13
2023-05-19T13:49:36.872Z,18.44
2023-05-19T13:54:38.543Z,18.74
2023-05-19T13:59:52.902Z,18.59
2023-05-19T14:05:02.798Z,18.36
2023-05-19T14:10:07.041Z,18.58
2023-05-19T14:15:11.451Z,17.91
2023-05-19T14:20:13.363Z,18.00
2023-05-19T14:25:15.086Z,17.64
2023-05-19T14:30:16.744Z,17.15
2023-05-19T14:35:18.444Z,17.21
2023-05-19T14:40:20.368Z,17.53
2023-05-19T14:45:22.181Z,17.60
2023-05-19T14:50:23.897Z,17.55
2023-05-19T14:55:25.679Z,17.51
2023-05-19T15:00:27.384Z,17.72
2023-05-19T15:05:29.054Z,18.18
2023-05-19T15:10:31.084Z,18.59
2023-05-19T15:15:32.876Z,18.30
2023-05-19T15:20:34.922Z,17.88
2023-05-19T15:25:37.279Z,18.04
2023-05-19T15:30:39.962Z,17.68
2023-05-19T15:35:41.959Z,17.20
2023-05-19T15:40:43.664Z,17.01
2023-05-19T15:45:45.395Z,16.59
2023-05-19T15:50:47.155Z,16.61
2023-05-19T15:55:48.842Z,16.73
2023-05-19T16:00:50.657Z,16.46
2023-05-19T16:05:53.194Z,16.82
2023-05-19T16:10:55.297Z,15.94
2023-05-19T16:15:56.976Z,15.86
2023-05-19T16:20:58.636Z,16.05
2023-05-19T16:26:00.457Z,15.97
2023-05-19T16:31:02.118Z,16.18
2023-05-19T16:36:03.999Z,15.82
2023-05-19T16:41:06.883Z,15.76
2023-05-19T16:46:09.951Z,15.97
2023-05-19T16:51:11.722Z,15.81
2023-05-19T16:56:13.380Z,15.50
2023-05-19T17:01:16.230Z,15.34
2023-05-19T17:06:17.887Z,15.38
2023-05-19T17:11:19.537Z,15.57
2023-05-19T17:16:21.422Z,15.48
2023-05-19T17:21:23.087Z,14.93
2023-05-19T17:26:24.749Z,15.08
2023-05-19T17:31:26.449Z,14.97
2023-05-19T17:36:28.429Z,14.89
2023-05-19T17:41:30.251Z,14.85
2023-05-19T17:46:34.728Z,14.84
2023-05-19T17:51:36.961Z,14.75
2023-05-19T17:56:42.186Z,14.84
2023-05-19T18:01:44.350Z,14.88
2023-05-19T18:06:46.615Z,14.76
2023-05-19T18:11:48.338Z,14.72
2023-05-19T18:16:50.131Z,14.79
2023-05-19T18:21:51.860Z,14.51
2023-05-19T18:26:53.506Z,14.62
2023-05-19T18:31:55.332Z,14.54
2023-05-19T18:36:57.025Z,14.58
2023-05-19T18:41:58.937Z,14.59
2023-05-19T18:47:01.137Z,14.43
2023-05-19T18:52:02.867Z,14.52
2023-05-19T18:57:05.103Z,14.41
2023-05-19T19:02:06.926Z,14.36
2023-05-19T19:07:08.614Z,14.39
2023-05-19T19:12:10.829Z,14.44
2023-05-19T19:17:12.749Z,14.34
2023-05-19T19:22:14.528Z,14.24
2023-05-19T19:27:20.931Z,14.17
2023-05-19T19:32:23.068Z,14.11
2023-05-19T19:37:24.795Z,13.88
2023-05-19T19:42:26.440Z,13.86
2023-05-19T19:47:28.128Z,13.94
2023-05-19T19:52:29.811Z,13.85
2023-05-19T19:57:34.140Z,13.94
2023-05-19T20:02:41.045Z,13.85
2023-05-19T20:07:47.428Z,13.81
2023-05-19T20:12:50.643Z,13.80
2023-05-19T20:17:52.396Z,13.62
2023-05-19T20:22:54.177Z,13.75
2023-05-19T20:27:55.822Z,13.73
2023-05-19T20:32:57.716Z,13.75
2023-05-19T20:37:59.510Z,13.73
2023-05-19T20:43:01.245Z,13.66
2023-05-19T20:48:03.817Z,13.48
2023-05-19T20:53:07.396Z,13.62
2023-05-19T20:58:09.136Z,13.54
2023-05-19T21:03:11.719Z,13.62
2023-05-19T21:08:13.556Z,13.56
2023-05-19T21:13:15.219Z,13.51
2023-05-19T21:18:16.902Z,13.54
2023-05-19T21:23:18.614Z,13.63
2023-05-19T21:28:20.332Z,13.55
2023-05-19T21:33:23.125Z,13.54
2023-05-19T21:38:25.009Z,13.57
2023-05-19T21:43:26.828Z,13.55
2023-05-19T21:48:28.484Z,13.42
2023-05-19T21:53:31.466Z,13.52
2023-05-19T21:58:34.470Z,13.49
2023-05-19T22:03:36.250Z,13.52
2023-05-19T22:08:37.958Z,13.44
2023-05-19T22:13:41.239Z,13.64
2023-05-19T22:18:43.348Z,13.68
2023-05-19T22:23:45.047Z,13.66
2023-05-19T22:28:46.685Z,13.59
2023-05-19T22:33:48.380Z,13.47
2023-05-19T22:38:50.129Z,13.50
2023-05-19T22:43:51.786Z,13.45
2023-05-19T22:48:53.426Z,13.48
2023-05-19T22:53:55.103Z,13.39
2023-05-19T22:58:56.771Z,13.47
2023-05-19T23:03:58.482Z,13.50
2023-05-19T23:09:04.482Z,13.48
2023-05-19T23:14:06.197Z,13.41
2023-05-19T23:19:07.951Z,13.17
2023-05-19T23:24:09.616Z,13.08
2023-05-19T23:29:13.078Z,13.26
2023-05-19T23:34:14.745Z,13.13
2023-05-19T23:39:16.397Z,12.97
2023-05-19T23:44:18.602Z,12.98
2023-05-19T23:49:20.450Z,13.11
2023-05-19T23:54:22.146Z,13.05
2023-05-19T23:59:23.792Z,12.56
